Time;durP1;ratioP1;P1;durP2;ratioP2;P2;SDS_P1;SDS_P2;PMS_P1;PMS_P2;Temp;Humidity;BMP_temperature;BMP_pressure;BME280_temperature;BME280_humidity;BME280_pressure;Samples;Min_cycle;Max_cycle;Signal;HPM_P1;HPM_P2
2021/12/24 00:01:30;;;;;;;160.18;58.15;;;;;;;1.02;100.00;99493.69;7396662;19;20019;-67
2021/12/24 00:03:58;;;;;;;159.25;61.00;;;;;;;1.06;100.00;99481.66;7396478;19;20014;-67
2021/12/24 00:06:27;;;;;;;165.63;59.60;;;;;;;1.07;100.00;99476.47;7396448;19;20415;-68
2021/12/24 00:08:58;;;;;;;163.68;59.38;;;;;;;1.09;100.00;99479.06;7394739;19;20019;-67
2021/12/24 00:11:26;;;;;;;164.43;58.80;;;;;;;1.09;100.00;99472.16;7395026;19;20014;-67
2021/12/24 00:13:54;;;;;;;165.60;59.53;;;;;;;1.10;100.00;99478.19;7396482;19;20011;-68
2021/12/24 00:16:25;;;;;;;161.13;57.72;;;;;;;1.11;100.00;99478.19;7394051;19;20489;-67
2021/12/24 00:18:59;;;;;;;173.98;61.13;;;;;;;1.11;100.00;99464.41;7394940;19;20019;-67
2021/12/24 00:22:11;;;;;;;162.65;58.58;;;;;;;1.12;100.00;99466.13;7394592;19;20021;-68
2021/12/24 00:35:27;;;;;;;180.07;60.80;;;;;;;1.20;100.00;99464.38;7394319;19;20416;-68
2021/12/24 00:37:56;;;;;;;174.32;59.33;;;;;;;1.24;100.00;99460.03;7395862;19;20033;-68
2021/12/24 00:40:26;;;;;;;174.05;60.38;;;;;;;1.25;100.00;99462.63;7395472;19;20018;-68
2021/12/24 00:42:57;;;;;;;182.70;61.47;;;;;;;1.28;100.00;99449.69;7395757;19;20031;-68
2021/12/24 00:45:28;;;;;;;181.77;61.35;;;;;;;1.32;100.00;99462.63;7393584;19;20015;-68
2021/12/24 00:47:57;;;;;;;203.15;62.58;;;;;;;1.34;100.00;99456.56;7401180;19;20018;-68
2021/12/24 00:50:28;;;;;;;202.07;62.63;;;;;;;1.37;100.00;99456.53;7408010;19;20470;-68
2021/12/24 00:53:02;;;;;;;193.00;60.97;;;;;;;1.38;100.00;99447.94;7407945;19;20018;-68
2021/12/24 00:55:32;;;;;;;207.52;61.15;;;;;;;1.42;100.00;99443.59;7407790;19;20361;-67
2021/12/24 00:58:03;;;;;;;201.90;62.22;;;;;;;1.44;100.00;99436.69;7408792;19;20359;-67
2021/12/24 01:00:35;;;;;;;186.70;61.42;;;;;;;1.45;100.00;99443.56;7408932;19;20512;-67
2021/12/24 01:03:07;;;;;;;195.85;60.25;;;;;;;1.48;100.00;99432.38;7409356;19;20022;-67
2021/12/24 01:05:37;;;;;;;216.02;63.40;;;;;;;1.51;100.00;99432.38;7407316;19;20019;-67
2021/12/24 01:08:07;;;;;;;214.57;63.65;;;;;;;1.52;100.00;99419.41;7407186;19;20036;-67
2021/12/24 01:10:41;;;;;;;209.32;62.22;;;;;;;1.56;100.00;99430.59;7406935;19;20019;-67
2021/12/24 01:13:09;;;;;;;211.10;61.65;;;;;;;1.58;100.00;99419.38;7409406;19;20369;-67
2021/12/24 01:15:49;;;;;;;205.10;61.00;;;;;;;1.63;100.00;99419.34;7406839;19;20031;-67
2021/12/24 01:18:25;;;;;;;218.20;62.08;;;;;;;1.63;100.00;99416.75;7406860;19;20019;-67
2021/12/24 01:21:07;;;;;;;211.27;60.97;;;;;;;1.67;100.00;99421.06;7409214;19;20089;-67
2021/12/24 01:23:41;;;;;;;219.57;60.58;;;;;;;1.71;100.00;99419.31;7406687;19;20025;-67
2021/12/24 01:26:18;;;;;;;231.75;61.63;;;;;;;1.74;100.00;99411.53;7406199;19;20498;-67
2021/12/24 01:29:06;;;;;;;206.40;57.22;;;;;;;1.75;100.00;99408.91;7408596;19;20086;-68
2021/12/24 01:39:54;;;;;;;195.85;56.22;;;;;;;1.87;100.00;99414.88;7408717;19;20015;-66
2021/12/24 01:45:16;;;;;;;213.45;53.42;;;;;;;1.91;100.00;99401.91;7407077;19;20091;-66
2021/12/24 01:47:44;;;;;;;196.15;54.60;;;;;;;1.95;100.00;99410.50;7408110;19;20019;-66
2021/12/24 01:50:13;;;;;;;192.82;55.53;;;;;;;1.97;100.00;99400.97;7405629;19;20018;-67
2021/12/24 01:52:42;;;;;;;220.25;55.35;;;;;;;1.99;100.00;99409.59;7407799;19;20031;-66
2021/12/24 01:55:11;;;;;;;201.50;55.88;;;;;;;2.02;100.00;99404.41;7405462;19;20015;-66
2021/12/24 01:57:44;;;;;;;205.25;56.75;;;;;;;2.04;100.00;99401.81;7407100;19;20479;-66
2021/12/24 02:00:16;;;;;;;206.15;54.65;;;;;;;2.06;100.00;99400.94;7399111;19;20022;-67
2021/12/24 02:02:45;;;;;;;204.70;57.20;;;;;;;2.07;100.00;99389.72;7399411;19;20032;-66
2021/12/24 02:05:13;;;;;;;190.32;54.17;;;;;;;2.10;100.00;99387.09;7398667;19;20425;-67
2021/12/24 02:07:42;;;;;;;211.60;54.10;;;;;;;2.09;100.00;99377.59;7400550;19;20022;-67
2021/12/24 02:10:14;;;;;;;201.68;53.13;;;;;;;2.14;100.00;99381.88;7397362;19;20493;-67
2021/12/24 02:12:52;;;;;;;197.77;53.35;;;;;;;2.15;100.00;99373.25;7401469;19;20032;-64
2021/12/24 02:15:31;;;;;;;189.25;53.08;;;;;;;2.16;100.00;99374.97;7398879;19;20040;-65
2021/12/24 02:18:19;;;;;;;180.90;50.72;;;;;;;2.13;100.00;99362.06;7397676;19;20026;-65
2021/12/24 02:29:15;;;;;;;171.77;48.22;;;;;;;2.22;100.00;99356.78;7399713;19;20037;-69
2021/12/24 02:31:43;;;;;;;170.30;46.15;;;;;;;2.18;100.00;99350.78;7397315;19;20025;-68
2021/12/24 02:34:12;;;;;;;170.15;46.15;;;;;;;2.24;100.00;99355.06;7396994;19;20041;-69
2021/12/24 02:36:49;;;;;;;169.50;45.80;;;;;;;2.24;100.00;99357.66;7396742;19;20015;-68
2021/12/24 02:39:17;;;;;;;150.70;44.53;;;;;;;2.25;100.00;99354.16;7399730;19;20023;-66
2021/12/24 02:41:45;;;;;;;157.45;43.20;;;;;;;2.26;100.00;99355.88;7399208;19;20036;-65
2021/12/24 02:44:13;;;;;;;149.40;41.20;;;;;;;2.28;100.00;99354.16;7398440;19;20585;-65
2021/12/24 02:47:04;;;;;;;149.07;42.63;;;;;;;2.30;100.00;99355.00;7396837;19;20022;-65
2021/12/24 02:54:54;;;;;;;138.05;38.33;;;;;;;2.29;100.00;99342.94;7398443;19;20019;-64
2021/12/24 02:57:26;;;;;;;125.60;35.65;;;;;;;2.38;100.00;99349.75;7398701;19;20035;-65
2021/12/24 03:00:06;;;;;;;123.97;34.38;;;;;;;2.41;100.00;99345.38;7398234;19;20483;-65
2021/12/24 03:02:37;;;;;;;106.28;31.52;;;;;;;2.44;100.00;99342.75;7398632;19;20018;-67
2021/12/24 03:05:06;;;;;;;97.88;30.55;;;;;;;2.51;100.00;99343.53;7397667;19;20037;-66
2021/12/24 03:07:37;;;;;;;90.40;29.63;;;;;;;2.57;100.00;99342.63;7398411;19;20022;-66
2021/12/24 03:10:11;;;;;;;93.45;28.95;;;;;;;2.63;100.00;99333.91;7397447;19;20031;-65
2021/12/24 03:12:40;;;;;;;91.85;28.60;;;;;;;2.68;100.00;99327.81;7398595;19;20081;-65
2021/12/24 03:15:10;;;;;;;97.20;29.15;;;;;;;2.72;100.00;99329.47;7395633;19;20484;-65
2021/12/24 03:17:39;;;;;;;92.22;27.92;;;;;;;2.79;100.00;99335.44;7397690;19;20382;-65
2021/12/24 03:20:10;;;;;;;86.53;28.30;;;;;;;2.85;100.00;99339.69;7395606;19;20459;-65
2021/12/24 03:22:48;;;;;;;88.43;28.33;;;;;;;2.88;100.00;99332.75;7396278;19;20019;-65
2021/12/24 03:25:17;;;;;;;94.22;27.35;;;;;;;2.93;100.00;99338.72;7395953;19;20018;-65
2021/12/24 03:27:46;;;;;;;87.93;28.45;;;;;;;2.95;100.00;99333.50;7397280;19;20491;-65
2021/12/24 03:30:16;;;;;;;100.28;29.95;;;;;;;2.99;100.00;99342.94;7397280;19;20026;-65
2021/12/24 03:32:44;;;;;;;81.55;26.85;;;;;;;3.03;100.00;99338.59;7395490;19;20371;-65
2021/12/24 03:35:18;;;;;;;89.88;28.13;;;;;;;3.01;100.00;99325.66;7395909;19;20010;-76
2021/12/24 03:37:49;;;;;;;;;;;;;;;3.06;100.00;99323.03;7396637;19;20022;-67
2021/12/24 03:40:17;;;;;;;81.43;26.73;;;;;;;3.02;100.00;99313.56;7397703;19;20007;-68
2021/12/24 03:42:45;;;;;;;85.78;26.15;;;;;;;3.10;100.00;99324.69;7395194;19;20044;-67
2021/12/24 03:45:25;;;;;;;80.53;28.27;;;;;;;3.12;100.00;99329.84;7395245;19;20014;-67
2021/12/24 03:47:58;;;;;;;87.82;27.13;;;;;;;3.15;100.00;99317.69;7395031;19;20349;-67
2021/12/24 03:50:43;;;;;;;80.60;27.13;;;;;;;3.15;100.00;99312.50;7394889;19;20417;-67
2021/12/24 03:55:54;;;;;;;79.90;25.58;;;;;;;3.19;100.00;99319.34;7394262;19;19918;-67
2021/12/24 03:58:22;;;;;;;80.57;25.33;;;;;;;3.22;100.00;99321.91;7396769;19;20022;-66
2021/12/24 04:00:51;;;;;;;76.78;25.83;;;;;;;3.24;100.00;99308.94;7394983;19;20026;-65
2021/12/24 04:03:20;;;;;;;72.70;24.70;;;;;;;3.26;100.00;99320.13;7396683;19;20024;-65
2021/12/24 04:05:49;;;;;;;72.13;25.08;;;;;;;3.29;100.00;99314.06;7394951;19;20022;-65
2021/12/24 04:08:20;;;;;;;62.35;23.02;;;;;;;3.30;100.00;99316.63;7394799;19;20022;-65
2021/12/24 04:10:49;;;;;;;68.72;25.23;;;;;;;3.31;100.00;99310.56;7394618;19;20019;-65
2021/12/24 04:13:18;;;;;;;58.85;24.58;;;;;;;3.32;100.00;99320.03;7394645;19;20019;-65
2021/12/24 04:15:46;;;;;;;67.93;24.25;;;;;;;3.36;100.00;99315.66;7394970;19;20041;-65
2021/12/24 04:18:20;;;;;;;67.93;24.75;;;;;;;3.36;100.00;99313.94;7394589;19;20022;-66
2021/12/24 04:26:13;;;;;;;58.40;21.35;;;;;;;3.40;100.00;99302.63;7394474;19;20384;-65
2021/12/24 04:28:41;;;;;;;67.55;25.42;;;;;;;3.43;100.00;99301.72;7395888;19;20019;-65
2021/12/24 04:31:09;;;;;;;65.70;25.38;;;;;;;3.46;100.00;99311.19;7395189;19;20022;-65
2021/12/24 04:33:44;;;;;;;56.92;21.75;;;;;;;3.47;100.00;99303.38;7394049;19;20086;-66
2021/12/24 04:36:34;;;;;;;49.95;20.70;;;;;;;3.49;100.00;99306.81;7393389;19;20018;-66
2021/12/24 04:39:32;;;;;;;59.60;20.98;;;;;;;3.52;100.00;99305.91;7395275;19;20376;-66
2021/12/24 04:52:58;;;;;;;49.33;19.80;;;;;;;3.61;100.00;99310.09;7393082;19;20491;-65
2021/12/24 05:03:34;;;;;;;42.80;18.70;;;;;;;3.67;100.00;99286.66;7395086;19;20015;-65
2021/12/24 05:06:11;;;;;;;44.85;16.83;;;;;;;3.67;100.00;99290.09;7393283;19;20074;-66
2021/12/24 05:08:48;;;;;;;51.00;17.35;;;;;;;3.66;100.00;99280.59;7394862;19;20078;-66
2021/12/24 05:11:20;;;;;;;40.42;16.63;;;;;;;3.70;100.00;99279.69;7394325;19;20032;-66
2021/12/24 05:13:50;;;;;;;47.05;16.77;;;;;;;3.72;100.00;99282.25;7393121;19;20014;-66
2021/12/24 05:16:24;;;;;;;38.92;15.07;;;;;;;3.73;100.00;99278.78;7392518;19;20029;-65
2021/12/24 05:21:42;;;;;;;33.72;15.05;;;;;;;3.75;100.00;99269.19;7390647;19;20007;-65
2021/12/24 05:24:14;;;;;;;35.35;14.65;;;;;;;3.75;100.00;99264.88;7394151;19;20010;-66
2021/12/24 05:26:47;;;;;;;36.80;15.00;;;;;;;3.78;100.00;99276.94;7392668;19;20014;-65
2021/12/24 05:29:17;;;;;;;34.27;14.40;;;;;;;3.79;100.00;99282.97;7392792;19;20019;-66
2021/12/24 05:31:46;;;;;;;33.40;14.35;;;;;;;3.80;100.00;99282.94;7392797;19;20038;-66
2021/12/24 05:34:18;;;;;;;30.83;13.13;;;;;;;3.82;100.00;99282.94;7395701;19;20015;-66
2021/12/24 05:36:47;;;;;;;32.95;13.25;;;;;;;3.83;100.00;99282.91;7398120;19;20011;-66
2021/12/24 05:39:17;;;;;;;34.47;13.77;;;;;;;3.85;100.00;99277.69;7401465;19;20010;-65
2021/12/24 05:41:49;;;;;;;36.28;13.60;;;;;;;3.86;100.00;99275.06;7401682;19;20018;-64
2021/12/24 05:44:17;;;;;;;30.83;13.10;;;;;;;3.88;100.00;99277.63;7398241;19;20349;-64
2021/12/24 05:46:46;;;;;;;28.83;12.80;;;;;;;3.88;100.00;99281.09;7398633;19;20090;-64
2021/12/24 05:49:17;;;;;;;29.83;12.50;;;;;;;3.91;100.00;99272.38;7401139;19;20082;-64
2021/12/24 05:51:45;;;;;;;28.42;11.50;;;;;;;3.90;100.00;99268.09;7400043;19;20027;-65
2021/12/24 05:54:14;;;;;;;24.83;12.45;;;;;;;3.92;100.00;99267.16;7400487;19;20023;-65
2021/12/24 05:56:42;;;;;;;27.42;11.95;;;;;;;3.95;100.00;99268.84;7400905;19;20018;-65
2021/12/24 05:59:13;;;;;;;27.63;12.38;;;;;;;3.97;100.00;99271.41;7398221;19;20022;-65
2021/12/24 06:01:42;;;;;;;28.42;12.23;;;;;;;3.99;100.00;99265.31;7400189;19;20018;-65
2021/12/24 06:04:10;;;;;;;30.08;12.38;;;;;;;4.02;100.00;99256.59;7399624;19;20037;-66
2021/12/24 06:06:38;;;;;;;23.98;11.43;;;;;;;4.03;100.00;99251.41;7400569;19;20018;-66
2021/12/24 06:09:07;;;;;;;30.02;12.05;;;;;;;4.04;100.00;99260.03;7400436;19;20031;-66
2021/12/24 06:11:35;;;;;;;25.85;11.65;;;;;;;4.06;100.00;99263.47;7397374;19;20397;-66
2021/12/24 06:14:09;;;;;;;25.58;11.93;;;;;;;4.07;100.00;99257.41;7397719;19;20022;-67
2021/12/24 06:16:48;;;;;;;23.67;10.20;;;;;;;4.08;100.00;99257.38;7397804;19;20018;-64
2021/12/24 06:19:16;;;;;;;24.55;10.40;;;;;;;4.10;100.00;99256.50;7398166;19;20023;-65
2021/12/24 06:21:44;;;;;;;21.50;9.57;;;;;;;4.12;100.00;99249.50;7400136;19;20077;-64
2021/12/24 06:24:13;;;;;;;23.38;10.20;;;;;;;4.13;100.00;99256.41;7397431;19;20019;-66
2021/12/24 06:26:41;;;;;;;20.42;9.35;;;;;;;4.15;100.00;99255.50;7399831;19;20029;-64
2021/12/24 06:29:10;;;;;;;18.33;9.00;;;;;;;4.16;100.00;99257.22;7399827;19;20024;-65
2021/12/24 06:31:41;;;;;;;19.42;8.55;;;;;;;4.18;100.00;99249.38;7398614;19;20483;-65
2021/12/24 06:34:09;;;;;;;14.93;8.38;;;;;;;4.20;100.00;99243.28;7397114;19;20014;-65
2021/12/24 06:36:41;;;;;;;14.98;7.82;;;;;;;4.20;100.00;99243.28;7396663;19;20566;-65
2021/12/24 06:39:10;;;;;;;17.25;8.35;;;;;;;4.26;100.00;99241.44;7399734;19;20090;-65
2021/12/24 06:41:39;;;;;;;18.55;8.55;;;;;;;4.26;100.00;99239.72;7396737;19;20035;-65
2021/12/24 06:44:10;;;;;;;14.13;7.10;;;;;;;4.31;100.00;99240.50;7398798;19;20015;-65
2021/12/24 06:46:42;;;;;;;12.60;6.20;;;;;;;4.34;100.00;99255.16;7395632;19;20029;-65
2021/12/24 06:49:13;;;;;;;12.40;6.53;;;;;;;4.35;100.00;99249.06;7397224;19;20010;-66
2021/12/24 06:51:42;;;;;;;9.48;5.47;;;;;;;4.38;100.00;99242.06;7396690;19;20070;-65
2021/12/24 06:54:11;;;;;;;11.57;6.40;;;;;;;4.42;100.00;99244.59;7396525;19;20019;-65
2021/12/24 06:56:39;;;;;;;10.68;5.85;;;;;;;4.42;100.00;99248.03;7398146;19;20497;-65
2021/12/24 06:59:07;;;;;;;9.60;5.65;;;;;;;4.44;100.00;99245.44;7398641;19;20039;-65
2021/12/24 07:01:35;;;;;;;8.82;4.68;;;;;;;4.45;100.00;99237.59;7398281;19;20417;-65
2021/12/24 07:04:07;;;;;;;9.82;4.97;;;;;;;4.49;100.00;99249.63;7396235;19;20018;-66
2021/12/24 07:06:35;;;;;;;9.40;4.43;;;;;;;4.51;100.00;99244.41;7396542;19;20015;-65
2021/12/24 07:09:03;;;;;;;7.68;4.70;;;;;;;4.52;100.00;99244.34;7398152;19;20023;-65
2021/12/24 07:11:31;;;;;;;7.95;4.97;;;;;;;4.53;100.00;99251.28;7396066;19;20014;-64
2021/12/24 07:13:59;;;;;;;7.40;4.47;;;;;;;4.55;100.00;99252.09;7398046;19;20014;-64
2021/12/24 07:16:27;;;;;;;6.35;4.35;;;;;;;4.56;100.00;99251.22;7396125;19;20017;-64
2021/12/24 07:18:55;;;;;;;8.30;4.15;;;;;;;4.58;100.00;99248.59;7397707;19;20027;-65
2021/12/24 07:21:27;;;;;;;7.60;4.13;;;;;;;4.61;100.00;99247.66;7397702;19;20018;-66
2021/12/24 07:23:56;;;;;;;8.35;4.68;;;;;;;4.61;100.00;99248.50;7397721;19;20019;-66
2021/12/24 07:26:24;;;;;;;6.75;4.35;;;;;;;4.62;100.00;99242.44;7398709;19;20028;-66
2021/12/24 07:28:52;;;;;;;8.13;4.80;;;;;;;4.65;100.00;99252.78;7400465;19;20015;-65
2021/12/24 07:31:20;;;;;;;8.32;5.57;;;;;;;4.67;100.00;99252.72;7397382;19;20010;-65
2021/12/24 07:33:49;;;;;;;10.38;5.68;;;;;;;4.66;100.00;99245.81;7395682;19;20010;-66
2021/12/24 07:36:17;;;;;;;12.70;6.90;;;;;;;4.67;100.00;99247.53;7394822;19;20010;-66
2021/12/24 07:38:48;;;;;;;14.18;6.85;;;;;;;4.66;100.00;99240.63;7395390;19;20034;-65
2021/12/24 07:41:16;;;;;;;14.15;7.90;;;;;;;4.66;100.00;99254.50;7396881;19;20479;-65
2021/12/24 07:43:44;;;;;;;18.30;8.70;;;;;;;4.65;100.00;99255.38;7395371;19;20361;-65
2021/12/24 07:46:13;;;;;;;18.60;9.57;;;;;;;4.65;100.00;99249.31;7395251;19;20022;-65
2021/12/24 07:48:45;;;;;;;15.45;8.35;;;;;;;4.64;100.00;99253.66;7394797;19;20383;-66
2021/12/24 07:54:00;;;;;;;14.85;7.05;;;;;;;4.65;100.00;99246.69;7396921;19;20007;-66
2021/12/24 07:56:28;;;;;;;14.50;6.47;;;;;;;4.65;100.00;99249.31;7395540;19;20011;-66
2021/12/24 07:58:57;;;;;;;14.45;7.05;;;;;;;4.65;100.00;99244.97;7395572;19;20014;-66
2021/12/24 08:01:26;;;;;;;19.25;9.98;;;;;;;4.67;100.00;99243.19;7394828;19;20014;-65
2021/12/24 08:03:55;;;;;;;11.63;5.78;;;;;;;4.68;100.00;99237.09;7396482;19;20461;-65
2021/12/24 08:06:26;;;;;;;13.00;6.55;;;;;;;4.71;100.00;99229.25;7394329;19;20026;-65
2021/12/24 08:08:57;;;;;;;11.60;6.80;;;;;;;4.73;100.00;99230.06;7394943;19;20019;-65
2021/12/24 08:11:25;;;;;;;14.45;7.82;;;;;;;4.78;100.00;99232.56;7396613;19;20019;-65
2021/12/24 08:13:53;;;;;;;8.77;5.70;;;;;;;4.80;100.00;99223.00;7396150;19;20022;-65
2021/12/24 08:16:23;;;;;;;11.35;6.40;;;;;;;4.82;100.00;99226.41;7394285;19;20102;-65
2021/12/24 08:18:51;;;;;;;10.07;6.20;;;;;;;4.84;100.00;99224.63;7395340;19;20022;-65
2021/12/24 08:21:20;;;;;;;9.27;5.57;;;;;;;4.86;100.00;99224.59;7394374;19;20031;-65
2021/12/24 08:23:48;;;;;;;9.23;5.50;;;;;;;4.87;100.00;99218.50;7395884;19;20040;-65
2021/12/24 08:26:21;;;;;;;9.32;5.60;;;;;;;4.89;100.00;99224.50;7393713;19;20504;-65
2021/12/24 08:28:55;;;;;;;13.60;8.65;;;;;;;4.89;100.00;99220.19;7396295;19;20018;-65
2021/12/24 08:31:24;;;;;;;9.10;7.20;;;;;;;4.92;100.00;99224.47;7393935;19;20019;-66
2021/12/24 08:33:52;;;;;;;7.63;5.90;;;;;;;4.95;100.00;99226.13;7393923;19;20022;-66
2021/12/24 08:36:20;;;;;;;9.30;5.82;;;;;;;4.96;100.00;99218.28;7393093;19;20025;-66
2021/12/24 08:38:48;;;;;;;6.82;5.20;;;;;;;4.98;100.00;99213.94;7395522;19;20015;-66
2021/12/24 08:41:19;;;;;;;72.20;42.47;;;;;;;5.02;100.00;99222.50;7395213;19;20032;-66
2021/12/24 08:43:47;;;;;;;11.73;8.57;;;;;;;5.04;100.00;99210.31;7394032;19;20015;-65
2021/12/24 08:46:15;;;;;;;8.55;6.18;;;;;;;5.08;100.00;99213.69;7392977;19;20022;-66
2021/12/24 08:48:43;;;;;;;5.90;3.65;;;;;;;5.10;100.00;99212.78;7393565;19;20014;-65
2021/12/24 08:51:12;;;;;;;5.55;3.58;;;;;;;5.15;100.00;99207.47;7393362;19;20031;-66
2021/12/24 08:53:41;;;;;;;4.20;2.90;;;;;;;5.15;100.00;99200.50;7393108;19;20019;-66
2021/12/24 08:56:16;;;;;;;3.97;2.72;;;;;;;5.22;100.00;99201.25;7393007;19;20015;-66
2021/12/24 08:58:47;;;;;;;4.47;2.75;;;;;;;5.28;100.00;99193.28;7393691;19;20032;-65
2021/12/24 09:01:15;;;;;;;4.75;2.72;;;;;;;5.32;100.00;99181.91;7393446;19;20018;-66
2021/12/24 09:03:43;;;;;;;4.90;2.55;;;;;;;5.37;100.00;99179.16;7396058;19;20015;-65
2021/12/24 09:06:11;;;;;;;3.22;2.05;;;;;;;5.42;100.00;99189.47;7393002;19;20016;-66
2021/12/24 09:08:42;;;;;;;5.20;2.80;;;;;;;5.46;100.00;99173.75;7395017;19;20028;-66
2021/12/24 09:11:10;;;;;;;3.10;2.40;;;;;;;5.51;100.00;99181.41;7400189;19;20043;-66
2021/12/24 09:13:39;;;;;;;3.00;2.33;;;;;;;5.55;100.00;99180.47;7399341;19;20382;-66
2021/12/24 09:16:10;;;;;;;4.30;3.40;;;;;;;5.60;100.00;99167.31;7399194;19;20019;-66
2021/12/24 09:18:41;;;;;;;3.90;2.50;;;;;;;5.63;100.00;99173.28;7402505;19;20019;-66
2021/12/24 09:21:15;;;;;;;7.10;3.45;;;;;;;5.67;100.00;99172.34;7399285;19;20015;-66
2021/12/24 09:23:47;;;;;;;5.30;3.15;;;;;;;5.71;100.00;99171.34;7402331;19;20082;-66
2021/12/24 09:26:15;;;;;;;4.97;2.85;;;;;;;5.74;100.00;99169.53;7399041;19;20018;-66
2021/12/24 09:28:44;;;;;;;7.35;3.85;;;;;;;5.76;100.00;99170.38;7401296;19;20383;-66
2021/12/24 09:31:15;;;;;;;4.32;3.00;;;;;;;5.78;100.00;99179.00;7401521;19;20025;-66
2021/12/24 09:33:43;;;;;;;3.78;2.85;;;;;;;5.81;100.00;99179.78;7399140;19;20020;-66
2021/12/24 09:36:11;;;;;;;4.85;3.10;;;;;;;5.82;100.00;99189.25;7398215;19;20356;-66
2021/12/24 09:38:39;;;;;;;3.60;2.55;;;;;;;5.84;100.00;99179.66;7398612;19;20032;-66
2021/12/24 09:41:08;;;;;;;5.03;3.30;;;;;;;5.87;100.00;99186.53;7401376;19;20022;-66
2021/12/24 09:43:36;;;;;;;4.05;3.20;;;;;;;5.89;100.00;99184.75;7398585;19;20015;-66
2021/12/24 09:46:05;;;;;;;4.30;2.95;;;;;;;5.89;100.00;99174.34;7398869;19;20349;-66
2021/12/24 09:48:35;;;;;;;4.20;3.45;;;;;;;5.91;100.00;99177.75;7398241;19;20018;-66
2021/12/24 09:51:03;;;;;;;5.60;3.90;;;;;;;5.93;100.00;99173.38;7398664;19;20014;-65
2021/12/24 09:53:32;;;;;;;4.38;3.17;;;;;;;5.93;100.00;99178.56;7398111;19;20022;-65
2021/12/24 09:56:01;;;;;;;4.45;3.22;;;;;;;5.97;100.00;99174.13;7398017;19;20014;-66
2021/12/24 09:58:29;;;;;;;3.95;3.00;;;;;;;5.98;100.00;99184.53;7397772;19;20032;-65
2021/12/24 10:00:57;;;;;;;5.10;3.72;;;;;;;5.99;100.00;99183.63;7400379;19;20044;-64
2021/12/24 10:03:33;;;;;;;4.78;3.15;;;;;;;6.00;100.00;99171.47;7400518;19;20018;-64
2021/12/24 10:06:05;;;;;;;4.60;2.90;;;;;;;6.02;100.00;99167.91;7397722;19;20030;-65
2021/12/24 10:08:34;;;;;;;5.63;3.47;;;;;;;6.04;100.00;99165.28;7400820;19;20019;-65
2021/12/24 10:11:05;;;;;;;6.57;4.32;;;;;;;6.06;100.00;99160.03;7400168;19;20040;-65
2021/12/24 10:13:41;;;;;;;8.25;6.18;;;;;;;6.07;100.00;99165.19;7397682;19;20010;-65
2021/12/24 10:16:12;;;;;;;7.45;5.20;;;;;;;6.08;100.00;99168.63;7396413;19;20483;-65
2021/12/24 10:18:43;;;;;;;7.90;5.43;;;;;;;6.10;100.00;99156.44;7397722;19;20018;-64
2021/12/24 10:21:18;;;;;;;8.98;6.55;;;;;;;6.10;100.00;99149.47;7395573;19;20018;-64
2021/12/24 10:23:51;;;;;;;7.18;6.15;;;;;;;6.10;100.00;99157.28;7399695;19;20370;-64
2021/12/24 10:26:24;;;;;;;8.50;5.93;;;;;;;6.11;100.00;99142.53;7397156;19;20336;-64
2021/12/24 10:28:57;;;;;;;9.40;6.30;;;;;;;6.11;100.00;99137.31;7397841;19;20015;-66
2021/12/24 10:31:29;;;;;;;7.82;5.32;;;;;;;6.11;100.00;99137.31;7399837;19;20010;-65
2021/12/24 10:34:14;;;;;;;9.32;6.40;;;;;;;6.10;100.00;99146.03;7397554;19;20024;-65
2021/12/24 10:37:03;;;;;;;9.80;7.13;;;;;;;6.12;100.00;99133.81;7396752;19;20011;-65
2021/12/24 10:39:35;;;;;;;11.95;7.32;;;;;;;6.13;100.00;99138.97;7397146;19;20018;-65
2021/12/24 10:42:05;;;;;;;13.77;8.80;;;;;;;6.16;100.00;99146.69;7397170;19;20031;-65
2021/12/24 10:44:36;;;;;;;11.50;7.13;;;;;;;6.17;100.00;99134.53;7396661;19;20018;-64
2021/12/24 10:47:12;;;;;;;11.98;7.80;;;;;;;6.17;100.00;99137.16;7398162;19;20483;-64
2021/12/24 10:49:59;;;;;;;11.18;7.05;;;;;;;6.15;100.00;99137.16;7396414;19;20082;-65
2021/12/24 10:52:45;;;;;;;13.95;8.95;;;;;;;6.16;100.00;99143.25;7398244;19;20208;-65
2021/12/24 10:55:17;;;;;;;10.68;7.32;;;;;;;6.14;100.00;99126.81;7397061;19;20566;-65
2021/12/24 10:57:48;;;;;;;12.75;7.47;;;;;;;6.14;100.00;99139.81;7396718;19;20022;-65
2021/12/24 11:00:23;;;;;;;11.75;7.47;;;;;;;6.13;100.00;99133.78;7398941;19;20019;-65
2021/12/24 11:02:55;;;;;;;11.75;7.32;;;;;;;6.13;100.00;99140.72;7398690;19;20026;-65
2021/12/24 11:05:33;;;;;;;12.73;7.93;;;;;;;6.12;100.00;99145.09;7396313;19;20040;-65
2021/12/24 11:08:07;;;;;;;14.68;8.57;;;;;;;6.12;100.00;99137.28;7396183;19;20018;-65
2021/12/24 11:10:38;;;;;;;11.98;7.32;;;;;;;6.14;100.00;99137.22;7398763;19;20032;-65
2021/12/24 11:13:12;;;;;;;10.43;6.85;;;;;;;6.15;100.00;99136.31;7396509;19;20019;-65
2021/12/24 11:15:43;;;;;;;10.95;7.45;;;;;;;6.13;100.00;99141.59;7397084;19;20022;-65
2021/12/24 11:18:20;;;;;;;6.47;4.43;;;;;;;6.11;100.00;99156.38;7398629;19;20035;-65
2021/12/24 11:20:54;;;;;;;6.05;3.90;;;;;;;6.10;100.00;99148.63;7398423;19;20019;-65
2021/12/24 11:23:26;;;;;;;5.47;3.40;;;;;;;6.08;100.00;99134.78;7395963;19;20040;-65
2021/12/24 11:25:57;;;;;;;6.28;4.32;;;;;;;6.07;100.00;99131.34;7395891;19;20035;-65
2021/12/24 11:28:26;;;;;;;5.03;3.75;;;;;;;6.08;100.00;99142.59;7398418;19;20024;-65
2021/12/24 11:31:00;;;;;;;4.22;3.10;;;;;;;6.08;100.00;99127.84;7397205;19;20007;-65
2021/12/24 11:33:31;;;;;;;5.30;3.78;;;;;;;6.11;100.00;99129.50;7395386;19;20504;-65
2021/12/24 11:36:01;;;;;;;6.30;4.25;;;;;;;6.13;100.00;99138.09;7395036;19;20499;-65
2021/12/24 11:38:36;;;;;;;4.63;3.63;;;;;;;6.12;100.00;99119.03;7395817;19;20031;-65
2021/12/24 11:41:06;;;;;;;5.32;3.80;;;;;;;6.10;100.00;99133.00;7397636;19;20025;-66
2021/12/24 11:43:36;;;;;;;4.72;3.65;;;;;;;6.11;100.00;99143.38;7397319;19;20010;-66
2021/12/24 11:46:08;;;;;;;3.30;2.75;;;;;;;6.08;100.00;99146.06;7395640;19;20036;-66
2021/12/24 11:48:37;;;;;;;2.13;1.85;;;;;;;6.07;100.00;99151.34;7395933;19;20019;-66
2021/12/24 11:51:09;;;;;;;2.85;2.30;;;;;;;6.03;100.00;99147.97;7396435;19;20014;-66
2021/12/24 11:53:40;;;;;;;2.40;2.10;;;;;;;5.98;100.00;99142.00;7398026;19;20031;-65
2021/12/24 11:56:12;;;;;;;2.50;2.00;;;;;;;5.97;100.00;99141.13;7395753;19;20026;-66
2021/12/24 11:58:45;;;;;;;2.20;2.00;;;;;;;5.94;100.00;99133.41;7395481;19;20011;-63
2021/12/24 12:01:16;;;;;;;1.85;1.52;;;;;;;5.93;100.00;99144.72;7397073;19;20024;-65
2021/12/24 12:03:49;;;;;;;3.45;2.38;;;;;;;5.94;100.00;99149.03;7395461;19;20018;-64
2021/12/24 12:06:35;;;;;;;4.22;2.75;;;;;;;5.92;100.00;99149.97;7395005;19;20041;-64
2021/12/24 12:09:10;;;;;;;2.95;2.40;;;;;;;5.88;100.00;99139.63;7396919;19;20036;-63
2021/12/24 12:11:40;;;;;;;2.10;1.70;;;;;;;5.85;100.00;99134.53;7396869;19;20023;-65
2021/12/24 12:14:23;;;;;;;1.70;1.55;;;;;;;5.82;100.00;99129.41;7395586;19;20089;-65
2021/12/24 12:16:54;;;;;;;1.55;1.30;;;;;;;5.81;100.00;99129.44;7396303;19;20371;-64
2021/12/24 12:19:27;;;;;;;2.58;1.52;;;;;;;5.79;100.00;99133.88;7394773;19;20070;-65
2021/12/24 12:22:18;;;;;;;1.67;1.30;;;;;;;5.79;100.00;99132.09;7395903;19;20533;-65
2021/12/24 12:27:32;;;;;;;1.70;1.50;;;;;;;5.75;100.00;99153.91;7394328;19;20007;-65
2021/12/24 12:30:00;;;;;;;3.67;2.17;;;;;;;5.74;100.00;99165.22;7393824;19;20361;-65
2021/12/24 12:32:50;;;;;;;2.15;1.70;;;;;;;5.72;100.00;99190.41;7394629;19;20107;-65
2021/12/24 12:35:19;;;;;;;6.80;3.10;;;;;;;5.69;100.00;99203.50;7393201;19;20354;-65
2021/12/24 12:37:50;;;;;;;4.85;2.97;;;;;;;5.63;100.00;99214.91;7392892;19;20006;-64
2021/12/24 12:40:48;;;;;;;2.22;1.73;;;;;;;5.50;100.00;99223.97;7395095;19;20022;-66
2021/12/24 12:43:17;;;;;;;3.08;2.00;;;;;;;5.37;100.00;99189.56;7389544;19;20022;-66
2021/12/24 12:46:02;;;;;;;2.33;1.70;;;;;;;5.31;100.00;99213.16;7394189;19;20011;-66
2021/12/24 12:48:48;;;;;;;2.55;1.42;;;;;;;5.12;100.00;99205.78;7395829;19;20077;-66
2021/12/24 12:51:19;;;;;;;3.03;1.98;;;;;;;5.01;100.00;99202.59;7394283;19;20018;-66
2021/12/24 12:53:48;;;;;;;2.00;1.73;;;;;;;4.92;100.00;99234.84;7394148;19;20015;-66
2021/12/24 12:56:22;;;;;;;2.30;2.00;;;;;;;4.78;100.00;99221.31;7395880;19;20371;-66